ADDS METAR Data INFO
IDs: Format: Raw Decoded Include TAF

Data at: 0229 UTC 21 Nov 2017

KGGG 210053Z 16004KT 10SM CLR 08/03 A3004
KGGG 202353Z 16004KT 10SM SKC 11/04 A3004

KGGG 202323Z 2100/2124 17005KT P6SM FEW280
  FM211100 17006KT P6SM BKN250
  FM211500 18007KT P6SM SCT030 BKN250
  FM211900 18007KT P6SM BKN050


KTYR 210153Z 16007KT 10SM CLR 10/02 A3001 RMK AO2 SLP163 T01000022
KTYR 210053Z 15006KT 10SM CLR 09/02 A3002 RMK AO2 SLP167 T00940022
KTYR 202353Z 15005KT 10SM CLR 11/01 A3003 RMK AO2 SLP168 T01110011 10172 20111 56008

KTYR 202323Z 2100/2124 17007KT P6SM FEW280
  FM211100 18009KT P6SM BKN250
  FM211500 19009KT P6SM SCT030 BKN250
  FM211900 18009KT P6SM BKN050